LGMT/MJT METAR and TAF weather

Enter ICAO airport designator
Station Type Date Time Source
LGMT METAR 2019/12/14 16:50 UTC NOAA

LGMT 141650Z 13013KT 9999 FEW020TCU BKN025 17/12 Q1001


Station Type Date Time Source
LGMT Decoded METAR 2019/12/14 16:50 UTC NOAA

Mytilini Airport , Greece (LGMT) 39-04N 026-36E 5M
Dec 14, 2019 - 11:50 AM EST / 2019.12.14 1650 UTC
Wind: from the SE (130 degrees) at 15 MPH (13 KT):0
Visibility: greater than 7 mile(s):0
Sky conditions: mostly cloudy
Weather: Towering cumulus clouds observed
Temperature: 62 F (17 C)
Dew Point: 53 F (12 C)
Relative Humidity: 72%
Pressure (altimeter): 29.56 in. Hg (1001 hPa)
ob: LGMT 141650Z 13013KT 9999 FEW020TCU BKN025 17/12 Q1001
cycle: 17

Station Type Date Time Source
LGMT TAF 2012/09/21 03:06 UTC NOAA

TAF LGMT 210200Z 2103/2115 VRB05KT 9999 SCT020
BECMG 2103/2105 30015KT PROB30
TEMPO 2103/2106 7000 RA SCT018 BKN030
BECMG 2107/2109 29012KT

Example: see airport list